createdAt,value
2023-12-08T00:00:24.050Z,14.07
2023-12-08T00:03:25.594Z,13.93
2023-12-08T00:06:27.106Z,12.80
2023-12-08T00:09:28.593Z,14.60
2023-12-08T00:12:30.081Z,15.10
2023-12-08T00:15:32.053Z,17.00
2023-12-08T00:18:33.724Z,14.03
2023-12-08T00:21:35.251Z,13.60
2023-12-08T00:24:36.785Z,14.80
2023-12-08T00:27:38.223Z,15.37
2023-12-08T00:30:39.666Z,13.23
2023-12-08T00:33:41.337Z,12.37
2023-12-08T00:36:43.035Z,13.53
2023-12-08T00:39:44.808Z,15.63
2023-12-08T00:42:46.287Z,14.30
2023-12-08T00:45:48.286Z,12.27
2023-12-08T00:48:49.912Z,14.03
2023-12-08T00:51:51.482Z,14.80
2023-12-08T00:54:53.242Z,14.77
2023-12-08T00:57:54.689Z,13.03
2023-12-08T01:00:56.252Z,12.40
2023-12-08T01:03:57.771Z,13.43
2023-12-08T01:06:59.277Z,12.50
2023-12-08T01:10:00.703Z,13.60
2023-12-08T01:13:02.142Z,12.73
2023-12-08T01:16:07.769Z,13.57
2023-12-08T01:19:11.833Z,13.43
2023-12-08T01:22:13.405Z,12.87
2023-12-08T01:25:14.926Z,12.37
2023-12-08T01:28:16.464Z,13.73
2023-12-08T01:31:17.970Z,13.70
2023-12-08T01:34:19.613Z,14.27
2023-12-08T01:37:21.300Z,12.73
2023-12-08T01:40:22.721Z,13.50
2023-12-08T01:43:24.205Z,13.87
2023-12-08T01:46:25.856Z,13.87
2023-12-08T01:49:27.472Z,13.73
2023-12-08T01:52:29.066Z,14.50
2023-12-08T01:55:31.317Z,13.27
2023-12-08T01:58:32.799Z,12.73
2023-12-08T02:01:34.569Z,12.60
2023-12-08T02:04:36.132Z,13.80
2023-12-08T02:07:37.599Z,14.90
2023-12-08T02:10:39.068Z,17.87
2023-12-08T02:13:42.261Z,12.33
2023-12-08T02:16:54.137Z,15.50
2023-12-08T02:19:56.778Z,12.87
2023-12-08T02:22:58.406Z,12.93
2023-12-08T02:25:59.928Z,12.50
2023-12-08T02:29:01.628Z,14.07
2023-12-08T02:32:10.967Z,12.17
2023-12-08T02:35:14.406Z,12.23
2023-12-08T02:38:20.124Z,12.20
2023-12-08T02:41:21.726Z,13.30
2023-12-08T02:44:23.254Z,12.50
2023-12-08T02:47:25.181Z,13.03
2023-12-08T02:50:26.816Z,11.83
2023-12-08T02:53:28.248Z,13.03
2023-12-08T02:56:29.718Z,10.67
2023-12-08T02:59:31.218Z,14.23
2023-12-08T03:02:32.742Z,12.67
2023-12-08T03:05:34.376Z,13.63
2023-12-08T03:08:36.847Z,12.33
2023-12-08T03:11:38.416Z,13.87
2023-12-08T03:14:39.880Z,12.73
2023-12-08T03:17:41.371Z,15.13
2023-12-08T03:20:42.870Z,15.20
2023-12-08T03:23:44.344Z,15.53
2023-12-08T03:26:46.801Z,14.27
2023-12-08T03:29:48.379Z,14.87
2023-12-08T03:32:50.060Z,13.37
2023-12-08T03:35:51.676Z,13.27
2023-12-08T03:38:53.167Z,12.87
2023-12-08T03:41:54.704Z,11.70
2023-12-08T03:44:56.256Z,11.70
2023-12-08T03:47:57.920Z,14.10
2023-12-08T03:50:59.576Z,13.17
2023-12-08T03:54:01.274Z,12.10
2023-12-08T03:57:03.173Z,12.83
2023-12-08T04:00:05.954Z,12.10
2023-12-08T04:03:07.498Z,12.57
2023-12-08T04:06:09.135Z,12.13
2023-12-08T04:09:10.765Z,12.90
2023-12-08T04:12:12.385Z,14.00
2023-12-08T04:15:14.055Z,13.90
2023-12-08T04:18:15.673Z,15.03
2023-12-08T04:21:20.543Z,12.20
2023-12-08T04:24:22.065Z,13.43
2023-12-08T04:27:23.931Z,13.07
2023-12-08T04:30:25.592Z,13.73
2023-12-08T04:33:27.156Z,14.93
2023-12-08T04:36:28.806Z,16.37
2023-12-08T04:39:30.389Z,13.77
2023-12-08T04:42:32.009Z,12.80
2023-12-08T04:45:33.670Z,14.37
2023-12-08T04:48:35.396Z,15.13
2023-12-08T04:51:36.903Z,14.07
2023-12-08T04:54:38.406Z,14.53
2023-12-08T04:57:39.871Z,14.27
2023-12-08T05:00:41.324Z,13.90
2023-12-08T05:03:43.082Z,15.50
2023-12-08T05:06:45.498Z,17.93
2023-12-08T05:09:47.047Z,15.33
2023-12-08T05:12:48.741Z,15.07
2023-12-08T05:15:50.383Z,21.53
2023-12-08T05:18:52.590Z,18.10
2023-12-08T05:21:54.229Z,19.40
2023-12-08T05:24:56.113Z,15.50
2023-12-08T05:27:58.083Z,17.80
2023-12-08T05:31:00.373Z,13.77
2023-12-08T05:34:01.989Z,14.70
2023-12-08T05:37:03.682Z,15.20
2023-12-08T05:40:06.900Z,14.73
2023-12-08T05:43:08.384Z,14.63
2023-12-08T05:46:09.840Z,16.73
2023-12-08T05:49:11.520Z,15.63
2023-12-08T05:52:13.082Z,17.30
2023-12-08T05:55:14.597Z,16.80
2023-12-08T05:58:16.127Z,19.17
2023-12-08T06:01:19.651Z,30.87
2023-12-08T06:04:21.976Z,28.17
2023-12-08T06:07:23.635Z,23.70
2023-12-08T06:10:25.240Z,19.20
2023-12-08T06:13:26.741Z,22.60
2023-12-08T06:16:28.748Z,20.70
2023-12-08T06:19:31.037Z,21.63
2023-12-08T06:22:32.932Z,17.07
2023-12-08T06:25:34.552Z,17.40
2023-12-08T06:28:36.065Z,16.63
2023-12-08T06:31:37.907Z,16.83
2023-12-08T06:34:39.726Z,16.67
2023-12-08T06:37:41.304Z,18.83
2023-12-08T06:40:43.014Z,15.53
2023-12-08T06:43:44.534Z,15.27
2023-12-08T06:46:46.034Z,18.23
2023-12-08T06:49:49.099Z,18.03
2023-12-08T06:52:52.556Z,16.70
2023-12-08T06:55:54.287Z,17.30
2023-12-08T06:58:56.397Z,16.20
2023-12-08T07:01:58.063Z,15.90
2023-12-08T07:04:59.766Z,15.00
2023-12-08T07:08:02.174Z,15.30
2023-12-08T07:11:04.232Z,14.03
2023-12-08T07:14:05.806Z,18.97
2023-12-08T07:17:07.642Z,17.37
2023-12-08T07:20:12.552Z,17.60
2023-12-08T07:23:14.231Z,17.40
2023-12-08T07:26:16.739Z,17.33
2023-12-08T07:29:18.270Z,18.03
2023-12-08T07:32:20.379Z,17.93
2023-12-08T07:35:22.062Z,16.07
2023-12-08T07:38:23.725Z,17.77
2023-12-08T07:41:26.093Z,17.80
2023-12-08T07:44:27.628Z,16.10
2023-12-08T07:47:29.613Z,16.33
2023-12-08T07:50:31.255Z,16.33
2023-12-08T07:53:32.800Z,15.90
2023-12-08T07:56:34.731Z,17.83
2023-12-08T07:59:36.387Z,16.37
2023-12-08T08:02:38.273Z,16.37
2023-12-08T08:05:39.869Z,17.40
2023-12-08T08:08:41.563Z,17.43
2023-12-08T08:11:43.093Z,14.73
2023-12-08T08:14:44.725Z,18.10
2023-12-08T08:17:46.320Z,16.37
2023-12-08T08:20:47.789Z,17.30
2023-12-08T08:23:49.302Z,17.73
2023-12-08T08:26:50.829Z,20.47
2023-12-08T08:29:52.361Z,19.53
2023-12-08T08:32:53.979Z,18.07
2023-12-08T08:35:55.569Z,16.93
2023-12-08T08:38:57.278Z,20.83
2023-12-08T08:41:58.938Z,18.17
2023-12-08T08:45:00.453Z,22.40
2023-12-08T08:48:02.836Z,21.13
2023-12-08T08:51:04.768Z,18.50
2023-12-08T08:54:06.304Z,21.17
2023-12-08T08:57:08.026Z,22.47
2023-12-08T09:00:13.431Z,20.87
2023-12-08T09:03:15.137Z,20.80
2023-12-08T09:06:17.168Z,18.80
2023-12-08T09:09:19.358Z,19.60
2023-12-08T09:12:21.041Z,20.80
2023-12-08T09:15:22.574Z,21.57
2023-12-08T09:18:24.206Z,22.83
2023-12-08T09:21:25.769Z,19.00
2023-12-08T09:24:27.773Z,18.33
2023-12-08T09:27:30.000Z,22.87
2023-12-08T09:30:32.001Z,21.30
2023-12-08T09:33:33.756Z,20.23
2023-12-08T09:36:35.475Z,20.10
2023-12-08T09:39:38.557Z,17.47
2023-12-08T09:42:48.538Z,18.53
2023-12-08T09:45:50.636Z,20.47
2023-12-08T09:48:55.838Z,20.87
2023-12-08T09:51:57.763Z,21.30
2023-12-08T09:54:59.296Z,21.73
2023-12-08T09:58:02.465Z,21.57
2023-12-08T10:01:06.437Z,19.70
2023-12-08T10:04:08.095Z,22.57
2023-12-08T10:07:11.742Z,22.93
2023-12-08T10:10:13.261Z,25.77
2023-12-08T10:13:14.839Z,19.87
2023-12-08T10:16:16.430Z,22.87
2023-12-08T10:19:21.743Z,24.03
2023-12-08T10:22:24.395Z,20.27
2023-12-08T10:25:28.401Z,23.67
2023-12-08T10:28:29.854Z,21.10
2023-12-08T10:31:31.656Z,18.23
2023-12-08T10:34:33.733Z,23.37
2023-12-08T10:37:36.470Z,22.27
2023-12-08T10:40:45.747Z,21.77
2023-12-08T10:43:47.198Z,21.00
2023-12-08T10:46:49.618Z,23.13
2023-12-08T10:49:52.457Z,22.47
2023-12-08T10:52:54.021Z,21.50
2023-12-08T10:56:09.506Z,20.70
2023-12-08T10:59:24.684Z,23.57
2023-12-08T11:02:31.356Z,23.23
2023-12-08T11:05:44.242Z,23.17
2023-12-08T11:08:47.206Z,23.03
2023-12-08T11:11:55.270Z,23.07
2023-12-08T11:15:06.434Z,21.10
2023-12-08T11:18:22.751Z,24.50
2023-12-08T11:21:25.280Z,22.13
2023-12-08T11:24:29.375Z,21.63
2023-12-08T11:28:12.884Z,21.83
2023-12-08T11:31:40.160Z,22.80
2023-12-08T11:34:58.982Z,20.53
2023-12-08T11:38:04.482Z,21.53
2023-12-08T11:41:13.496Z,22.53
2023-12-08T11:44:15.074Z,21.10
2023-12-08T11:47:25.792Z,22.30
2023-12-08T11:50:27.381Z,21.80
2023-12-08T11:53:29.150Z,21.17
2023-12-08T11:56:43.986Z,20.80
2023-12-08T11:59:45.642Z,23.87
2023-12-08T12:02:51.400Z,22.87
2023-12-08T12:05:53.315Z,20.60
2023-12-08T12:08:57.993Z,21.70
2023-12-08T12:12:06.836Z,25.80
2023-12-08T12:15:11.379Z,23.00
2023-12-08T12:18:14.518Z,22.13
2023-12-08T12:21:16.609Z,22.53
2023-12-08T12:24:18.435Z,23.93
2023-12-08T12:27:20.330Z,21.07
2023-12-08T12:30:22.487Z,22.70
2023-12-08T12:33:24.199Z,21.43
2023-12-08T12:36:25.819Z,20.63
2023-12-08T12:39:27.442Z,20.80
2023-12-08T12:42:28.998Z,21.43
2023-12-08T12:45:32.906Z,21.20
2023-12-08T12:48:34.669Z,24.03
2023-12-08T12:51:38.896Z,21.83
2023-12-08T12:54:43.707Z,22.77
2023-12-08T12:57:51.248Z,28.53
2023-12-08T13:00:53.185Z,43.43
2023-12-08T13:03:55.774Z,40.10
2023-12-08T13:06:58.127Z,28.20
2023-12-08T13:10:00.238Z,24.07
2023-12-08T13:13:01.762Z,24.17
2023-12-08T13:16:03.824Z,24.27
2023-12-08T13:19:05.541Z,20.60
2023-12-08T13:22:07.159Z,19.37
2023-12-08T13:25:09.411Z,19.80
2023-12-08T13:28:11.030Z,21.03
2023-12-08T13:31:12.459Z,21.93
2023-12-08T13:34:14.329Z,22.20
2023-12-08T13:37:16.275Z,21.47
2023-12-08T13:40:17.874Z,21.30
2023-12-08T13:43:19.554Z,20.27
2023-12-08T13:46:21.142Z,23.93
2023-12-08T13:49:23.304Z,21.57
2023-12-08T13:52:24.842Z,24.30
2023-12-08T13:55:26.304Z,25.60
2023-12-08T13:58:27.825Z,28.00
2023-12-08T14:01:32.258Z,28.67
2023-12-08T14:04:33.760Z,31.47
2023-12-08T14:07:35.409Z,33.80
2023-12-08T14:10:36.942Z,29.30
2023-12-08T14:13:38.412Z,24.73
2023-12-08T14:16:39.991Z,29.17
2023-12-08T14:19:41.505Z,25.43
2023-12-08T14:22:42.947Z,22.40
2023-12-08T14:25:44.476Z,26.53
2023-12-08T14:28:46.114Z,26.60
2023-12-08T14:31:47.661Z,25.13
2023-12-08T14:34:49.378Z,27.63
2023-12-08T14:37:51.762Z,26.00
2023-12-08T14:40:54.494Z,25.60
2023-12-08T14:43:56.434Z,27.30
2023-12-08T14:46:57.953Z,25.23
2023-12-08T14:49:59.663Z,31.10
2023-12-08T14:53:01.968Z,28.50
2023-12-08T14:56:03.940Z,27.77
2023-12-08T14:59:05.385Z,31.80
2023-12-08T15:02:07.041Z,27.43
2023-12-08T15:05:08.817Z,28.83
2023-12-08T15:08:10.305Z,27.07
2023-12-08T15:11:12.095Z,27.67
2023-12-08T15:14:13.554Z,29.13
2023-12-08T15:17:15.003Z,25.73
2023-12-08T15:20:16.585Z,25.37
2023-12-08T15:23:19.131Z,22.63
2023-12-08T15:26:21.470Z,26.40
2023-12-08T15:29:22.968Z,24.77
2023-12-08T15:32:24.565Z,23.50
2023-12-08T15:35:26.020Z,26.30
2023-12-08T15:38:27.469Z,26.57
2023-12-08T15:41:28.942Z,27.77
2023-12-08T15:44:30.395Z,26.50
2023-12-08T15:47:32.500Z,29.30
2023-12-08T15:50:34.063Z,27.53
2023-12-08T15:53:35.927Z,24.67
2023-12-08T15:56:38.701Z,24.03
2023-12-08T15:59:41.759Z,24.60
2023-12-08T16:02:43.343Z,30.40
2023-12-08T16:05:46.268Z,30.23
2023-12-08T16:08:47.919Z,27.00
2023-12-08T16:11:49.415Z,28.60
2023-12-08T16:14:50.908Z,29.13
2023-12-08T16:17:52.915Z,29.63
2023-12-08T16:20:54.447Z,29.40
2023-12-08T16:23:57.960Z,30.07
2023-12-08T16:26:59.475Z,27.20
2023-12-08T16:30:01.045Z,27.00
2023-12-08T16:33:02.592Z,35.87
2023-12-08T16:36:05.305Z,35.70
2023-12-08T16:39:06.919Z,35.90
2023-12-08T16:42:08.516Z,35.77
2023-12-08T16:45:10.617Z,31.20
2023-12-08T16:48:12.331Z,31.90
2023-12-08T16:51:14.025Z,28.57
2023-12-08T16:54:15.568Z,36.57
2023-12-08T16:57:17.065Z,34.33
2023-12-08T17:00:19.285Z,35.97
2023-12-08T17:03:21.201Z,31.83
2023-12-08T17:06:23.322Z,28.00
2023-12-08T17:09:25.212Z,25.20
2023-12-08T17:12:28.840Z,29.17
2023-12-08T17:15:30.684Z,27.77
2023-12-08T17:18:33.056Z,27.93
2023-12-08T17:21:36.793Z,33.13
2023-12-08T17:24:38.325Z,30.30
2023-12-08T17:27:39.880Z,32.07
2023-12-08T17:30:41.780Z,32.53
2023-12-08T17:33:43.728Z,26.63
2023-12-08T17:36:45.288Z,27.70
2023-12-08T17:39:47.033Z,30.70
2023-12-08T17:42:48.507Z,28.07
2023-12-08T17:45:50.133Z,28.07
2023-12-08T17:48:51.691Z,28.40
2023-12-08T17:51:53.280Z,29.90
2023-12-08T17:54:56.613Z,30.07
2023-12-08T17:57:58.065Z,30.87
2023-12-08T18:00:59.707Z,32.30
2023-12-08T18:04:01.927Z,30.93
2023-12-08T18:07:04.370Z,27.60
2023-12-08T18:10:06.470Z,28.20
2023-12-08T18:13:07.890Z,29.97
2023-12-08T18:16:21.073Z,35.80
2023-12-08T18:19:22.661Z,33.67
2023-12-08T18:22:24.426Z,47.20
2023-12-08T18:25:25.965Z,44.30
2023-12-08T18:28:58.610Z,51.50
2023-12-08T18:31:49.423Z,52.93
2023-12-08T18:34:51.004Z,49.77
2023-12-08T18:37:52.749Z,42.23
2023-12-08T18:40:54.224Z,36.13
2023-12-08T18:43:55.847Z,34.40
2023-12-08T18:46:57.380Z,30.43
2023-12-08T18:49:58.869Z,33.77
2023-12-08T18:53:00.340Z,31.53
2023-12-08T18:56:04.660Z,32.33
2023-12-08T18:59:06.160Z,33.53
2023-12-08T19:02:07.950Z,34.10
2023-12-08T19:05:10.397Z,33.57
2023-12-08T19:08:11.867Z,34.30
2023-12-08T19:11:14.227Z,34.03
2023-12-08T19:14:15.760Z,36.00
2023-12-08T19:17:17.523Z,58.83
2023-12-08T19:20:19.183Z,50.40
2023-12-08T19:23:23.482Z,51.60
2023-12-08T19:26:24.903Z,39.87
2023-12-08T19:29:27.582Z,39.57
2023-12-08T19:32:30.501Z,42.00
2023-12-08T19:35:31.984Z,34.43
2023-12-08T19:38:33.889Z,36.27
2023-12-08T19:41:35.358Z,36.00
2023-12-08T19:44:36.929Z,40.37
2023-12-08T19:47:38.409Z,40.10
2023-12-08T19:50:39.850Z,40.70
2023-12-08T19:53:41.295Z,41.37
2023-12-08T19:56:44.345Z,38.90
2023-12-08T19:59:50.869Z,44.07
2023-12-08T20:02:52.452Z,42.77
2023-12-08T20:05:54.018Z,44.63
2023-12-08T20:08:55.590Z,46.83
2023-12-08T20:11:57.151Z,48.57
2023-12-08T20:14:58.764Z,62.03
2023-12-08T20:18:00.468Z,55.10
2023-12-08T20:21:06.051Z,46.13
2023-12-08T20:24:09.771Z,44.30
2023-12-08T20:27:11.435Z,42.93
2023-12-08T20:30:15.454Z,43.57
2023-12-08T20:33:16.995Z,45.73
2023-12-08T20:36:18.842Z,44.97
2023-12-08T20:39:20.355Z,46.80
2023-12-08T20:42:21.964Z,42.40
2023-12-08T20:45:23.444Z,45.10
2023-12-08T20:48:25.698Z,43.07
2023-12-08T20:51:27.322Z,48.57
2023-12-08T20:54:28.940Z,47.37
2023-12-08T20:57:30.849Z,46.60
2023-12-08T21:00:32.525Z,46.90
2023-12-08T21:03:34.324Z,43.40
2023-12-08T21:06:36.005Z,50.17
2023-12-08T21:09:37.591Z,49.40
2023-12-08T21:12:39.155Z,49.63
2023-12-08T21:15:40.722Z,49.63
2023-12-08T21:18:42.458Z,50.47
2023-12-08T21:21:44.034Z,46.40
2023-12-08T21:24:45.532Z,44.00
2023-12-08T21:27:47.084Z,44.63
2023-12-08T21:30:48.627Z,51.43
2023-12-08T21:33:50.616Z,48.47
2023-12-08T21:36:52.270Z,49.93
2023-12-08T21:39:53.720Z,44.87
2023-12-08T21:42:57.240Z,47.40
2023-12-08T21:45:58.888Z,47.40
2023-12-08T21:49:00.929Z,52.70
2023-12-08T21:52:03.333Z,43.77
2023-12-08T21:55:05.170Z,45.33
2023-12-08T21:58:06.692Z,47.70
2023-12-08T22:01:08.296Z,46.40
2023-12-08T22:04:09.862Z,42.30
2023-12-08T22:07:11.410Z,41.60
2023-12-08T22:10:12.984Z,39.93
2023-12-08T22:13:14.481Z,39.40
2023-12-08T22:16:16.103Z,37.43
2023-12-08T22:19:17.679Z,39.27
2023-12-08T22:22:19.418Z,41.27
2023-12-08T22:25:20.855Z,38.60
2023-12-08T22:28:24.420Z,39.57
2023-12-08T22:31:26.041Z,35.90
2023-12-08T22:34:27.772Z,38.90
2023-12-08T22:37:29.687Z,43.33
2023-12-08T22:40:31.346Z,42.23
2023-12-08T22:43:34.859Z,44.90
2023-12-08T22:46:36.553Z,40.23
2023-12-08T22:49:38.057Z,40.00
2023-12-08T22:52:39.631Z,39.07
2023-12-08T22:55:41.083Z,32.33
2023-12-08T22:58:43.191Z,37.30
2023-12-08T23:01:44.815Z,35.57
2023-12-08T23:04:46.557Z,37.43
2023-12-08T23:07:48.917Z,36.30
2023-12-08T23:10:50.475Z,36.77
2023-12-08T23:13:52.398Z,37.20
2023-12-08T23:16:53.852Z,36.07
2023-12-08T23:19:55.421Z,38.17
2023-12-08T23:22:56.859Z,38.57
2023-12-08T23:25:59.182Z,35.80
2023-12-08T23:29:01.984Z,35.00
2023-12-08T23:32:04.120Z,37.07
2023-12-08T23:35:07.792Z,33.13
2023-12-08T23:38:09.229Z,34.53
2023-12-08T23:41:10.793Z,36.63
2023-12-08T23:44:12.377Z,34.90
2023-12-08T23:47:14.042Z,33.67
2023-12-08T23:50:15.658Z,33.80
2023-12-08T23:53:19.662Z,33.83
2023-12-08T23:56:23.678Z,34.83
2023-12-08T23:59:26.014Z,34.80
